sensor_id;sensor_type;location;lat;lon;timestamp;temperature;humidity
6538;DHT22;3302;52.508;13.454;2022-07-03T00:01:17;20.10;61.30
6538;DHT22;3302;52.508;13.454;2022-07-03T00:03:42;20.10;61.30
6538;DHT22;3302;52.508;13.454;2022-07-03T00:06:09;20.10;61.80
6538;DHT22;3302;52.508;13.454;2022-07-03T00:08:34;20.10;61.90
6538;DHT22;3302;52.508;13.454;2022-07-03T00:11:00;20.00;61.80
6538;DHT22;3302;52.508;13.454;2022-07-03T00:13:26;19.70;62.60
6538;DHT22;3302;52.508;13.454;2022-07-03T00:15:52;19.70;63.30
6538;DHT22;3302;52.508;13.454;2022-07-03T00:18:17;19.70;63.70
6538;DHT22;3302;52.508;13.454;2022-07-03T00:20:49;19.60;64.30
6538;DHT22;3302;52.508;13.454;2022-07-03T00:23:18;19.50;64.90
6538;DHT22;3302;52.508;13.454;2022-07-03T00:25:47;19.50;65.30
6538;DHT22;3302;52.508;13.454;2022-07-03T00:28:14;19.50;65.90
6538;DHT22;3302;52.508;13.454;2022-07-03T00:30:42;19.60;65.60
6538;DHT22;3302;52.508;13.454;2022-07-03T00:33:09;19.60;65.30
6538;DHT22;3302;52.508;13.454;2022-07-03T00:35:37;19.70;65.50
6538;DHT22;3302;52.508;13.454;2022-07-03T00:38:05;19.60;65.80
6538;DHT22;3302;52.508;13.454;2022-07-03T00:40:30;19.60;65.60
6538;DHT22;3302;52.508;13.454;2022-07-03T00:42:59;19.50;66.00
6538;DHT22;3302;52.508;13.454;2022-07-03T00:45:26;19.40;66.50
6538;DHT22;3302;52.508;13.454;2022-07-03T00:47:55;19.30;66.90
6538;DHT22;3302;52.508;13.454;2022-07-03T00:50:25;19.30;67.20
6538;DHT22;3302;52.508;13.454;2022-07-03T00:52:52;19.30;67.50
6538;DHT22;3302;52.508;13.454;2022-07-03T00:55:18;19.20;68.30
6538;DHT22;3302;52.508;13.454;2022-07-03T00:57:47;19.10;68.60
6538;DHT22;3302;52.508;13.454;2022-07-03T01:00:17;19.10;69.00
6538;DHT22;3302;52.508;13.454;2022-07-03T01:16:31;18.90;71.80
6538;DHT22;3302;52.508;13.454;2022-07-03T01:19:07;18.90;71.80
6538;DHT22;3302;52.508;13.454;2022-07-03T01:21:46;18.90;72.50
6538;DHT22;3302;52.508;13.454;2022-07-03T01:24:56;18.80;73.00
6538;DHT22;3302;52.508;13.454;2022-07-03T01:27:29;18.80;73.40
6538;DHT22;3302;52.508;13.454;2022-07-03T01:32:32;18.60;74.40
6538;DHT22;3302;52.508;13.454;2022-07-03T01:35:00;18.50;75.10
6538;DHT22;3302;52.508;13.454;2022-07-03T01:37:27;18.50;75.70
6538;DHT22;3302;52.508;13.454;2022-07-03T01:39:57;18.50;76.00
6538;DHT22;3302;52.508;13.454;2022-07-03T01:42:23;18.50;76.00
6538;DHT22;3302;52.508;13.454;2022-07-03T01:44:51;18.60;76.10
6538;DHT22;3302;52.508;13.454;2022-07-03T01:47:18;18.70;75.90
6538;DHT22;3302;52.508;13.454;2022-07-03T01:49:44;18.80;75.50
6538;DHT22;3302;52.508;13.454;2022-07-03T01:52:11;18.70;75.40
6538;DHT22;3302;52.508;13.454;2022-07-03T01:54:39;18.70;76.00
6538;DHT22;3302;52.508;13.454;2022-07-03T01:57:08;18.50;76.50
6538;DHT22;3302;52.508;13.454;2022-07-03T01:59:34;18.40;77.30
6538;DHT22;3302;52.508;13.454;2022-07-03T02:02:14;18.40;77.60
6538;DHT22;3302;52.508;13.454;2022-07-03T02:05:08;18.50;77.20
6538;DHT22;3302;52.508;13.454;2022-07-03T02:10:35;18.30;78.70
6538;DHT22;3302;52.508;13.454;2022-07-03T02:13:16;18.30;79.40
6538;DHT22;3302;52.508;13.454;2022-07-03T02:15:45;18.50;79.00
6538;DHT22;3302;52.508;13.454;2022-07-03T02:18:35;18.40;79.20
6538;DHT22;3302;52.508;13.454;2022-07-03T02:21:14;18.50;79.00
6538;DHT22;3302;52.508;13.454;2022-07-03T02:26:39;18.30;79.70
6538;DHT22;3302;52.508;13.454;2022-07-03T02:29:08;18.40;80.00
6538;DHT22;3302;52.508;13.454;2022-07-03T02:31:41;18.30;79.80
6538;DHT22;3302;52.508;13.454;2022-07-03T02:34:08;18.10;80.40
6538;DHT22;3302;52.508;13.454;2022-07-03T02:36:40;18.00;81.60
6538;DHT22;3302;52.508;13.454;2022-07-03T02:39:16;18.00;81.70
6538;DHT22;3302;52.508;13.454;2022-07-03T02:41:53;18.00;82.20
6538;DHT22;3302;52.508;13.454;2022-07-03T02:44:44;18.00;82.30
6538;DHT22;3302;52.508;13.454;2022-07-03T02:47:12;18.10;82.00
6538;DHT22;3302;52.508;13.454;2022-07-03T02:49:55;18.10;82.00
6538;DHT22;3302;52.508;13.454;2022-07-03T02:52:28;17.90;82.50
6538;DHT22;3302;52.508;13.454;2022-07-03T02:55:02;17.90;82.80
6538;DHT22;3302;52.508;13.454;2022-07-03T02:57:36;17.90;83.70
6538;DHT22;3302;52.508;13.454;2022-07-03T03:00:04;17.80;84.50
6538;DHT22;3302;52.508;13.454;2022-07-03T03:02:36;17.80;84.70
6538;DHT22;3302;52.508;13.454;2022-07-03T03:05:14;17.80;84.60
6538;DHT22;3302;52.508;13.454;2022-07-03T03:10:28;18.20;83.60
6538;DHT22;3302;52.508;13.454;2022-07-03T03:13:11;18.20;83.70
6538;DHT22;3302;52.508;13.454;2022-07-03T03:15:38;18.20;83.30
6538;DHT22;3302;52.508;13.454;2022-07-03T03:18:06;18.20;83.20
6538;DHT22;3302;52.508;13.454;2022-07-03T03:20:37;18.20;83.70
6538;DHT22;3302;52.508;13.454;2022-07-03T03:23:45;18.10;83.60
6538;DHT22;3302;52.508;13.454;2022-07-03T03:26:16;18.10;84.10
6538;DHT22;3302;52.508;13.454;2022-07-03T03:28:44;18.10;84.40
6538;DHT22;3302;52.508;13.454;2022-07-03T03:31:10;18.10;84.50
6538;DHT22;3302;52.508;13.454;2022-07-03T03:33:39;18.10;84.50
6538;DHT22;3302;52.508;13.454;2022-07-03T03:36:07;18.10;84.20
6538;DHT22;3302;52.508;13.454;2022-07-03T03:38:33;17.70;86.30
6538;DHT22;3302;52.508;13.454;2022-07-03T03:41:01;17.60;87.50
6538;DHT22;3302;52.508;13.454;2022-07-03T03:43:27;17.70;87.50
6538;DHT22;3302;52.508;13.454;2022-07-03T03:45:52;17.60;87.90
6538;DHT22;3302;52.508;13.454;2022-07-03T03:48:18;17.50;88.40
6538;DHT22;3302;52.508;13.454;2022-07-03T03:50:44;17.60;89.00
6538;DHT22;3302;52.508;13.454;2022-07-03T03:53:11;17.60;88.40
6538;DHT22;3302;52.508;13.454;2022-07-03T03:55:37;17.60;88.40
6538;DHT22;3302;52.508;13.454;2022-07-03T03:58:17;17.60;88.80
6538;DHT22;3302;52.508;13.454;2022-07-03T04:00:42;17.60;89.10
6538;DHT22;3302;52.508;13.454;2022-07-03T04:03:08;17.60;89.30
6538;DHT22;3302;52.508;13.454;2022-07-03T04:05:34;17.60;89.10
6538;DHT22;3302;52.508;13.454;2022-07-03T04:08:00;17.50;89.30
6538;DHT22;3302;52.508;13.454;2022-07-03T04:10:25;17.70;89.30
6538;DHT22;3302;52.508;13.454;2022-07-03T04:12:51;17.70;89.50
6538;DHT22;3302;52.508;13.454;2022-07-03T04:15:17;17.70;89.20
6538;DHT22;3302;52.508;13.454;2022-07-03T04:17:43;17.70;90.00
6538;DHT22;3302;52.508;13.454;2022-07-03T04:20:09;17.80;90.10
6538;DHT22;3302;52.508;13.454;2022-07-03T04:22:35;17.80;90.10
6538;DHT22;3302;52.508;13.454;2022-07-03T04:25:00;17.80;90.20
6538;DHT22;3302;52.508;13.454;2022-07-03T04:27:26;17.80;90.00
6538;DHT22;3302;52.508;13.454;2022-07-03T04:29:52;17.80;90.00
6538;DHT22;3302;52.508;13.454;2022-07-03T04:32:17;17.90;89.60
6538;DHT22;3302;52.508;13.454;2022-07-03T04:34:43;18.00;89.80
6538;DHT22;3302;52.508;13.454;2022-07-03T04:37:09;18.20;89.50
6538;DHT22;3302;52.508;13.454;2022-07-03T04:39:35;18.10;89.40
6538;DHT22;3302;52.508;13.454;2022-07-03T04:42:00;18.10;89.70
6538;DHT22;3302;52.508;13.454;2022-07-03T04:44:26;18.20;89.80
6538;DHT22;3302;52.508;13.454;2022-07-03T04:46:53;18.10;89.90
6538;DHT22;3302;52.508;13.454;2022-07-03T04:49:18;18.20;90.00
6538;DHT22;3302;52.508;13.454;2022-07-03T04:51:44;18.30;89.60
6538;DHT22;3302;52.508;13.454;2022-07-03T04:54:10;18.30;90.00
6538;DHT22;3302;52.508;13.454;2022-07-03T04:56:36;18.40;89.30
6538;DHT22;3302;52.508;13.454;2022-07-03T04:59:02;18.50;89.10
6538;DHT22;3302;52.508;13.454;2022-07-03T05:01:28;18.70;88.40
6538;DHT22;3302;52.508;13.454;2022-07-03T05:03:53;18.70;88.20
6538;DHT22;3302;52.508;13.454;2022-07-03T05:06:19;18.70;88.80
6538;DHT22;3302;52.508;13.454;2022-07-03T05:08:45;18.70;89.00
6538;DHT22;3302;52.508;13.454;2022-07-03T05:11:11;18.80;89.30
6538;DHT22;3302;52.508;13.454;2022-07-03T05:13:36;18.90;88.60
6538;DHT22;3302;52.508;13.454;2022-07-03T05:16:02;18.90;88.00
6538;DHT22;3302;52.508;13.454;2022-07-03T05:18:28;19.00;87.70
6538;DHT22;3302;52.508;13.454;2022-07-03T05:20:54;19.00;87.10
6538;DHT22;3302;52.508;13.454;2022-07-03T05:23:20;19.20;86.70
6538;DHT22;3302;52.508;13.454;2022-07-03T05:25:45;19.30;86.40
6538;DHT22;3302;52.508;13.454;2022-07-03T05:28:11;19.30;84.90
6538;DHT22;3302;52.508;13.454;2022-07-03T05:30:37;19.30;84.90
6538;DHT22;3302;52.508;13.454;2022-07-03T05:33:03;19.40;84.60
6538;DHT22;3302;52.508;13.454;2022-07-03T05:35:28;19.50;83.30
6538;DHT22;3302;52.508;13.454;2022-07-03T05:37:54;19.60;82.80
6538;DHT22;3302;52.508;13.454;2022-07-03T05:40:20;19.70;82.00
6538;DHT22;3302;52.508;13.454;2022-07-03T05:42:46;19.70;81.70
6538;DHT22;3302;52.508;13.454;2022-07-03T05:45:12;19.80;81.50
6538;DHT22;3302;52.508;13.454;2022-07-03T05:47:37;19.90;80.70
6538;DHT22;3302;52.508;13.454;2022-07-03T05:50:04;20.10;80.30
6538;DHT22;3302;52.508;13.454;2022-07-03T05:52:29;20.10;79.30
6538;DHT22;3302;52.508;13.454;2022-07-03T05:54:55;20.20;77.70
6538;DHT22;3302;52.508;13.454;2022-07-03T05:57:21;20.30;77.30
6538;DHT22;3302;52.508;13.454;2022-07-03T05:59:47;20.40;76.90
6538;DHT22;3302;52.508;13.454;2022-07-03T06:02:13;20.60;76.30
6538;DHT22;3302;52.508;13.454;2022-07-03T06:04:38;20.60;74.60
6538;DHT22;3302;52.508;13.454;2022-07-03T06:07:04;20.60;74.70
6538;DHT22;3302;52.508;13.454;2022-07-03T06:09:30;20.60;73.70
6538;DHT22;3302;52.508;13.454;2022-07-03T06:11:56;20.70;74.00
6538;DHT22;3302;52.508;13.454;2022-07-03T06:14:21;20.90;72.90
6538;DHT22;3302;52.508;13.454;2022-07-03T06:16:47;20.90;71.70
6538;DHT22;3302;52.508;13.454;2022-07-03T06:19:13;20.90;72.80
6538;DHT22;3302;52.508;13.454;2022-07-03T06:21:38;21.00;71.30
6538;DHT22;3302;52.508;13.454;2022-07-03T06:24:05;21.20;71.60
6538;DHT22;3302;52.508;13.454;2022-07-03T06:26:31;21.30;71.00
6538;DHT22;3302;52.508;13.454;2022-07-03T06:28:56;21.30;70.70
6538;DHT22;3302;52.508;13.454;2022-07-03T06:31:22;21.40;70.60
6538;DHT22;3302;52.508;13.454;2022-07-03T06:33:48;21.50;69.00
6538;DHT22;3302;52.508;13.454;2022-07-03T06:36:13;21.50;69.80
6538;DHT22;3302;52.508;13.454;2022-07-03T06:38:39;21.60;70.30
6538;DHT22;3302;52.508;13.454;2022-07-03T06:41:05;21.60;69.90
6538;DHT22;3302;52.508;13.454;2022-07-03T06:43:31;21.80;69.60
6538;DHT22;3302;52.508;13.454;2022-07-03T06:45:56;21.90;69.20
6538;DHT22;3302;52.508;13.454;2022-07-03T06:48:22;21.90;69.00
6538;DHT22;3302;52.508;13.454;2022-07-03T06:50:48;22.00;69.00
6538;DHT22;3302;52.508;13.454;2022-07-03T06:53:14;22.00;68.70
6538;DHT22;3302;52.508;13.454;2022-07-03T06:55:40;22.00;68.20
6538;DHT22;3302;52.508;13.454;2022-07-03T06:58:06;22.10;67.80
6538;DHT22;3302;52.508;13.454;2022-07-03T07:00:31;22.10;67.30
6538;DHT22;3302;52.508;13.454;2022-07-03T07:02:57;22.10;66.70
6538;DHT22;3302;52.508;13.454;2022-07-03T07:05:23;22.30;66.70
6538;DHT22;3302;52.508;13.454;2022-07-03T07:07:49;22.40;66.40
6538;DHT22;3302;52.508;13.454;2022-07-03T07:10:15;22.40;66.70
6538;DHT22;3302;52.508;13.454;2022-07-03T07:12:41;22.60;66.20
6538;DHT22;3302;52.508;13.454;2022-07-03T07:15:07;22.60;64.60
6538;DHT22;3302;52.508;13.454;2022-07-03T07:17:32;22.70;64.10
6538;DHT22;3302;52.508;13.454;2022-07-03T07:19:58;22.60;63.60
6538;DHT22;3302;52.508;13.454;2022-07-03T07:22:24;22.70;63.80
6538;DHT22;3302;52.508;13.454;2022-07-03T07:24:51;22.80;63.10
6538;DHT22;3302;52.508;13.454;2022-07-03T07:27:17;22.90;62.50
6538;DHT22;3302;52.508;13.454;2022-07-03T07:29:43;23.00;61.80
6538;DHT22;3302;52.508;13.454;2022-07-03T07:32:08;23.10;61.70
6538;DHT22;3302;52.508;13.454;2022-07-03T07:34:34;23.20;60.90
6538;DHT22;3302;52.508;13.454;2022-07-03T07:37:00;23.40;60.90
6538;DHT22;3302;52.508;13.454;2022-07-03T07:39:26;23.50;60.80
6538;DHT22;3302;52.508;13.454;2022-07-03T07:41:51;23.50;60.50
6538;DHT22;3302;52.508;13.454;2022-07-03T07:44:17;23.40;59.50
6538;DHT22;3302;52.508;13.454;2022-07-03T07:46:43;23.50;59.30
6538;DHT22;3302;52.508;13.454;2022-07-03T07:49:09;23.60;58.80
6538;DHT22;3302;52.508;13.454;2022-07-03T07:51:34;23.50;58.80
6538;DHT22;3302;52.508;13.454;2022-07-03T07:54:00;23.70;58.60
6538;DHT22;3302;52.508;13.454;2022-07-03T07:56:26;23.80;57.80
6538;DHT22;3302;52.508;13.454;2022-07-03T07:58:52;23.70;57.30
6538;DHT22;3302;52.508;13.454;2022-07-03T08:01:21;24.00;58.70
6538;DHT22;3302;52.508;13.454;2022-07-03T08:04:05;24.10;57.60
6538;DHT22;3302;52.508;13.454;2022-07-03T08:06:50;24.30;55.70
6538;DHT22;3302;52.508;13.454;2022-07-03T08:09:15;24.60;56.20
6538;DHT22;3302;52.508;13.454;2022-07-03T08:11:41;24.60;55.40
6538;DHT22;3302;52.508;13.454;2022-07-03T08:14:07;24.80;54.90
6538;DHT22;3302;52.508;13.454;2022-07-03T08:16:34;24.90;54.80
6538;DHT22;3302;52.508;13.454;2022-07-03T08:19:00;24.90;54.00
6538;DHT22;3302;52.508;13.454;2022-07-03T08:21:26;24.80;53.60
6538;DHT22;3302;52.508;13.454;2022-07-03T08:23:52;24.90;53.30
6538;DHT22;3302;52.508;13.454;2022-07-03T08:26:18;25.00;53.10
6538;DHT22;3302;52.508;13.454;2022-07-03T08:28:44;25.00;52.30
6538;DHT22;3302;52.508;13.454;2022-07-03T08:31:09;25.00;52.40
6538;DHT22;3302;52.508;13.454;2022-07-03T08:33:36;24.90;52.30
6538;DHT22;3302;52.508;13.454;2022-07-03T08:36:04;25.10;52.10
6538;DHT22;3302;52.508;13.454;2022-07-03T08:38:32;25.10;52.00
6538;DHT22;3302;52.508;13.454;2022-07-03T08:41:02;25.30;51.60
6538;DHT22;3302;52.508;13.454;2022-07-03T08:43:28;25.40;51.10
6538;DHT22;3302;52.508;13.454;2022-07-03T08:45:54;25.20;50.80
6538;DHT22;3302;52.508;13.454;2022-07-03T08:48:22;25.40;51.20
6538;DHT22;3302;52.508;13.454;2022-07-03T08:50:50;25.30;50.20
6538;DHT22;3302;52.508;13.454;2022-07-03T08:53:17;25.30;49.90
6538;DHT22;3302;52.508;13.454;2022-07-03T08:55:47;25.40;50.70
6538;DHT22;3302;52.508;13.454;2022-07-03T08:58:14;25.30;50.00
6538;DHT22;3302;52.508;13.454;2022-07-03T09:00:45;25.30;49.70
6538;DHT22;3302;52.508;13.454;2022-07-03T09:03:12;25.10;49.80
6538;DHT22;3302;52.508;13.454;2022-07-03T09:05:39;25.30;50.00
6538;DHT22;3302;52.508;13.454;2022-07-03T09:08:09;25.30;49.80
6538;DHT22;3302;52.508;13.454;2022-07-03T09:10:35;25.00;49.60
6538;DHT22;3302;52.508;13.454;2022-07-03T09:13:02;25.00;50.10
6538;DHT22;3302;52.508;13.454;2022-07-03T09:15:28;25.30;48.60
6538;DHT22;3302;52.508;13.454;2022-07-03T09:18:02;25.50;47.90
6538;DHT22;3302;52.508;13.454;2022-07-03T09:20:33;25.50;47.90
6538;DHT22;3302;52.508;13.454;2022-07-03T09:26:05;25.60;47.50
6538;DHT22;3302;52.508;13.454;2022-07-03T09:31:11;25.90;47.00
6538;DHT22;3302;52.508;13.454;2022-07-03T09:34:06;25.80;46.40
6538;DHT22;3302;52.508;13.454;2022-07-03T09:39:28;26.00;46.00
6538;DHT22;3302;52.508;13.454;2022-07-03T09:42:08;25.80;45.20
6538;DHT22;3302;52.508;13.454;2022-07-03T09:44:39;25.80;45.00
6538;DHT22;3302;52.508;13.454;2022-07-03T09:47:11;26.10;45.30
6538;DHT22;3302;52.508;13.454;2022-07-03T09:54:59;26.20;44.30
6538;DHT22;3302;52.508;13.454;2022-07-03T09:57:29;26.30;44.40
6538;DHT22;3302;52.508;13.454;2022-07-03T10:03:09;25.90;44.40
6538;DHT22;3302;52.508;13.454;2022-07-03T10:05:39;25.90;44.10
6538;DHT22;3302;52.508;13.454;2022-07-03T10:08:06;26.00;44.70
6538;DHT22;3302;52.508;13.454;2022-07-03T10:10:37;26.10;43.80
6538;DHT22;3302;52.508;13.454;2022-07-03T10:13:04;26.20;43.90
6538;DHT22;3302;52.508;13.454;2022-07-03T10:15:32;26.30;43.90
6538;DHT22;3302;52.508;13.454;2022-07-03T10:17:59;26.70;43.80
6538;DHT22;3302;52.508;13.454;2022-07-03T10:20:32;26.50;43.20
6538;DHT22;3302;52.508;13.454;2022-07-03T10:22:59;26.40;43.80
6538;DHT22;3302;52.508;13.454;2022-07-03T10:25:26;26.60;43.90
6538;DHT22;3302;52.508;13.454;2022-07-03T10:27:52;26.60;42.00
6538;DHT22;3302;52.508;13.454;2022-07-03T10:30:22;26.60;42.50
6538;DHT22;3302;52.508;13.454;2022-07-03T10:32:52;26.70;41.90
6538;DHT22;3302;52.508;13.454;2022-07-03T10:35:25;26.50;42.60
6538;DHT22;3302;52.508;13.454;2022-07-03T10:40:42;26.80;43.40
6538;DHT22;3302;52.508;13.454;2022-07-03T10:43:31;26.40;43.10
6538;DHT22;3302;52.508;13.454;2022-07-03T10:46:22;26.60;42.90
6538;DHT22;3302;52.508;13.454;2022-07-03T10:48:58;26.90;42.80
6538;DHT22;3302;52.508;13.454;2022-07-03T10:51:25;26.60;42.80
6538;DHT22;3302;52.508;13.454;2022-07-03T10:54:21;26.80;43.30
6538;DHT22;3302;52.508;13.454;2022-07-03T11:07:25;26.70;42.50
6538;DHT22;3302;52.508;13.454;2022-07-03T11:15:48;26.90;43.10
6538;DHT22;3302;52.508;13.454;2022-07-03T11:18:15;26.90;42.60
6538;DHT22;3302;52.508;13.454;2022-07-03T11:23:09;26.90;42.80
6538;DHT22;3302;52.508;13.454;2022-07-03T11:25:48;26.80;41.50
6538;DHT22;3302;52.508;13.454;2022-07-03T11:39:02;26.80;41.90
6538;DHT22;3302;52.508;13.454;2022-07-03T11:44:05;27.40;41.40
6538;DHT22;3302;52.508;13.454;2022-07-03T11:46:36;27.60;40.60
6538;DHT22;3302;52.508;13.454;2022-07-03T11:49:06;27.80;41.10
6538;DHT22;3302;52.508;13.454;2022-07-03T11:51:33;27.70;39.90
6538;DHT22;3302;52.508;13.454;2022-07-03T11:53:59;27.30;40.20
6538;DHT22;3302;52.508;13.454;2022-07-03T11:56:25;27.20;40.60
6538;DHT22;3302;52.508;13.454;2022-07-03T11:58:53;26.90;40.50
6538;DHT22;3302;52.508;13.454;2022-07-03T12:04:10;27.20;41.00
6538;DHT22;3302;52.508;13.454;2022-07-03T12:06:44;27.30;40.70
6538;DHT22;3302;52.508;13.454;2022-07-03T12:17:01;27.30;40.50
6538;DHT22;3302;52.508;13.454;2022-07-03T12:19:27;27.30;40.20
6538;DHT22;3302;52.508;13.454;2022-07-03T12:21:52;27.20;39.80
6538;DHT22;3302;52.508;13.454;2022-07-03T12:24:18;27.30;40.20
6538;DHT22;3302;52.508;13.454;2022-07-03T12:26:44;27.50;40.10
6538;DHT22;3302;52.508;13.454;2022-07-03T12:29:12;27.80;38.60
6538;DHT22;3302;52.508;13.454;2022-07-03T12:31:40;27.70;38.40
6538;DHT22;3302;52.508;13.454;2022-07-03T12:34:06;27.80;38.40
6538;DHT22;3302;52.508;13.454;2022-07-03T12:36:32;28.00;38.20
6538;DHT22;3302;52.508;13.454;2022-07-03T12:38:59;28.10;37.90
6538;DHT22;3302;52.508;13.454;2022-07-03T12:41:26;28.20;37.40
6538;DHT22;3302;52.508;13.454;2022-07-03T12:43:53;27.90;38.10
6538;DHT22;3302;52.508;13.454;2022-07-03T12:46:27;28.30;37.80
6538;DHT22;3302;52.508;13.454;2022-07-03T12:48:59;28.30;36.90
6538;DHT22;3302;52.508;13.454;2022-07-03T12:51:48;27.90;36.40
6538;DHT22;3302;52.508;13.454;2022-07-03T12:57:02;28.30;37.70
6538;DHT22;3302;52.508;13.454;2022-07-03T13:00:08;28.20;37.10
6538;DHT22;3302;52.508;13.454;2022-07-03T13:02:39;28.00;37.80
6538;DHT22;3302;52.508;13.454;2022-07-03T13:05:17;28.30;37.50
6538;DHT22;3302;52.508;13.454;2022-07-03T13:07:44;28.40;37.40
6538;DHT22;3302;52.508;13.454;2022-07-03T13:10:11;28.30;36.90
6538;DHT22;3302;52.508;13.454;2022-07-03T13:12:52;28.20;36.70
6538;DHT22;3302;52.508;13.454;2022-07-03T13:15:19;28.00;36.80
6538;DHT22;3302;52.508;13.454;2022-07-03T13:20:27;27.90;37.80
6538;DHT22;3302;52.508;13.454;2022-07-03T13:22:58;28.10;37.80
6538;DHT22;3302;52.508;13.454;2022-07-03T13:25:24;28.30;36.70
6538;DHT22;3302;52.508;13.454;2022-07-03T13:27:50;28.40;35.40
6538;DHT22;3302;52.508;13.454;2022-07-03T13:30:17;28.10;35.20
6538;DHT22;3302;52.508;13.454;2022-07-03T13:32:43;28.10;35.50
6538;DHT22;3302;52.508;13.454;2022-07-03T13:35:09;28.40;36.00
6538;DHT22;3302;52.508;13.454;2022-07-03T13:37:35;28.30;35.70
6538;DHT22;3302;52.508;13.454;2022-07-03T13:40:03;28.20;35.30
6538;DHT22;3302;52.508;13.454;2022-07-03T13:42:30;28.20;35.80
6538;DHT22;3302;52.508;13.454;2022-07-03T13:44:56;28.40;35.90
6538;DHT22;3302;52.508;13.454;2022-07-03T13:47:22;28.60;35.40
6538;DHT22;3302;52.508;13.454;2022-07-03T13:49:48;28.70;35.60
6538;DHT22;3302;52.508;13.454;2022-07-03T13:52:14;29.00;35.50
6538;DHT22;3302;52.508;13.454;2022-07-03T13:54:39;29.00;34.50
6538;DHT22;3302;52.508;13.454;2022-07-03T13:57:05;28.90;34.40
6538;DHT22;3302;52.508;13.454;2022-07-03T13:59:31;29.00;34.50
6538;DHT22;3302;52.508;13.454;2022-07-03T14:01:58;29.10;32.10
6538;DHT22;3302;52.508;13.454;2022-07-03T14:04:24;29.00;31.90
6538;DHT22;3302;52.508;13.454;2022-07-03T14:06:50;29.00;32.30
6538;DHT22;3302;52.508;13.454;2022-07-03T14:09:16;29.20;31.70
6538;DHT22;3302;52.508;13.454;2022-07-03T14:11:42;29.40;32.00
6538;DHT22;3302;52.508;13.454;2022-07-03T14:14:08;29.30;30.80
6538;DHT22;3302;52.508;13.454;2022-07-03T14:16:34;29.40;31.50
6538;DHT22;3302;52.508;13.454;2022-07-03T14:18:59;29.40;30.80
6538;DHT22;3302;52.508;13.454;2022-07-03T14:21:29;29.60;30.70
6538;DHT22;3302;52.508;13.454;2022-07-03T14:23:55;29.50;30.00
6538;DHT22;3302;52.508;13.454;2022-07-03T14:26:20;29.20;29.30
6538;DHT22;3302;52.508;13.454;2022-07-03T14:29:06;29.40;29.50
6538;DHT22;3302;52.508;13.454;2022-07-03T14:31:54;29.30;29.60
6538;DHT22;3302;52.508;13.454;2022-07-03T14:34:43;29.30;29.80
6538;DHT22;3302;52.508;13.454;2022-07-03T14:37:09;29.60;30.40
6538;DHT22;3302;52.508;13.454;2022-07-03T14:39:35;29.70;29.50
6538;DHT22;3302;52.508;13.454;2022-07-03T14:42:01;29.70;29.10
6538;DHT22;3302;52.508;13.454;2022-07-03T14:44:29;30.00;29.30
6538;DHT22;3302;52.508;13.454;2022-07-03T14:46:55;30.30;29.00
6538;DHT22;3302;52.508;13.454;2022-07-03T14:49:21;30.20;29.20
6538;DHT22;3302;52.508;13.454;2022-07-03T14:51:47;30.10;28.80
6538;DHT22;3302;52.508;13.454;2022-07-03T14:54:18;29.80;28.90
6538;DHT22;3302;52.508;13.454;2022-07-03T14:57:07;29.90;29.50
6538;DHT22;3302;52.508;13.454;2022-07-03T14:59:46;30.10;29.30
6538;DHT22;3302;52.508;13.454;2022-07-03T15:02:21;30.30;28.80
6538;DHT22;3302;52.508;13.454;2022-07-03T15:07:37;30.50;28.00
6538;DHT22;3302;52.508;13.454;2022-07-03T15:10:05;30.60;27.80
6538;DHT22;3302;52.508;13.454;2022-07-03T15:12:38;31.20;27.40
6538;DHT22;3302;52.508;13.454;2022-07-03T15:15:11;30.70;26.30
6538;DHT22;3302;52.508;13.454;2022-07-03T15:17:37;31.00;26.30
6538;DHT22;3302;52.508;13.454;2022-07-03T15:20:04;31.40;26.50
6538;DHT22;3302;52.508;13.454;2022-07-03T15:22:30;31.30;26.00
6538;DHT22;3302;52.508;13.454;2022-07-03T15:24:58;31.00;25.80
6538;DHT22;3302;52.508;13.454;2022-07-03T15:27:27;30.90;25.60
6538;DHT22;3302;52.508;13.454;2022-07-03T15:29:54;30.50;26.00
6538;DHT22;3302;52.508;13.454;2022-07-03T15:32:21;30.60;26.30
6538;DHT22;3302;52.508;13.454;2022-07-03T15:34:48;30.30;25.90
6538;DHT22;3302;52.508;13.454;2022-07-03T15:38:20;30.40;26.40
6538;DHT22;3302;52.508;13.454;2022-07-03T15:40:35;30.60;26.10
6538;DHT22;3302;52.508;13.454;2022-07-03T15:43:25;31.40;26.00
6538;DHT22;3302;52.508;13.454;2022-07-03T15:46:27;31.10;25.00
6538;DHT22;3302;52.508;13.454;2022-07-03T15:49:26;30.60;25.90
6538;DHT22;3302;52.508;13.454;2022-07-03T15:54:31;31.90;24.50
6538;DHT22;3302;52.508;13.454;2022-07-03T15:57:03;31.50;24.90
6538;DHT22;3302;52.508;13.454;2022-07-03T15:59:31;31.70;24.40
6538;DHT22;3302;52.508;13.454;2022-07-03T16:02:02;31.40;24.40
6538;DHT22;3302;52.508;13.454;2022-07-03T16:05:04;32.80;24.60
6538;DHT22;3302;52.508;13.454;2022-07-03T16:07:34;33.00;23.70
6538;DHT22;3302;52.508;13.454;2022-07-03T16:10:01;32.20;23.30
6538;DHT22;3302;52.508;13.454;2022-07-03T16:12:28;32.20;23.90
6538;DHT22;3302;52.508;13.454;2022-07-03T16:14:54;33.20;22.50
6538;DHT22;3302;52.508;13.454;2022-07-03T16:17:21;32.40;22.30
6538;DHT22;3302;52.508;13.454;2022-07-03T16:19:48;32.40;22.60
6538;DHT22;3302;52.508;13.454;2022-07-03T16:22:15;32.30;23.90
6538;DHT22;3302;52.508;13.454;2022-07-03T16:24:42;31.80;23.00
6538;DHT22;3302;52.508;13.454;2022-07-03T16:27:12;31.50;23.90
6538;DHT22;3302;52.508;13.454;2022-07-03T16:29:39;30.90;24.40
6538;DHT22;3302;52.508;13.454;2022-07-03T16:32:06;31.50;23.90
6538;DHT22;3302;52.508;13.454;2022-07-03T16:35:02;31.00;24.00
6538;DHT22;3302;52.508;13.454;2022-07-03T16:40:03;30.80;24.50
6538;DHT22;3302;52.508;13.454;2022-07-03T16:42:33;30.60;24.40
6538;DHT22;3302;52.508;13.454;2022-07-03T16:45:06;31.00;24.90
6538;DHT22;3302;52.508;13.454;2022-07-03T16:47:41;31.90;23.70
6538;DHT22;3302;52.508;13.454;2022-07-03T16:50:27;32.20;23.80
6538;DHT22;3302;52.508;13.454;2022-07-03T16:52:54;31.30;24.30
6538;DHT22;3302;52.508;13.454;2022-07-03T16:55:21;30.50;26.20
6538;DHT22;3302;52.508;13.454;2022-07-03T16:57:49;30.60;27.00
6538;DHT22;3302;52.508;13.454;2022-07-03T17:00:19;30.10;25.10
6538;DHT22;3302;52.508;13.454;2022-07-03T17:02:46;30.20;25.20
6538;DHT22;3302;52.508;13.454;2022-07-03T17:05:14;30.80;25.50
6538;DHT22;3302;52.508;13.454;2022-07-03T17:07:43;30.50;24.40
6538;DHT22;3302;52.508;13.454;2022-07-03T17:10:13;30.70;25.80
6538;DHT22;3302;52.508;13.454;2022-07-03T17:12:45;30.90;24.80
6538;DHT22;3302;52.508;13.454;2022-07-03T17:15:13;30.70;24.90
6538;DHT22;3302;52.508;13.454;2022-07-03T17:17:40;30.40;25.80
6538;DHT22;3302;52.508;13.454;2022-07-03T17:20:17;30.50;26.80
6538;DHT22;3302;52.508;13.454;2022-07-03T17:22:46;30.60;28.00
6538;DHT22;3302;52.508;13.454;2022-07-03T17:25:21;30.50;27.60
6538;DHT22;3302;52.508;13.454;2022-07-03T17:27:59;30.30;27.40
6538;DHT22;3302;52.508;13.454;2022-07-03T17:30:38;30.30;27.70
6538;DHT22;3302;52.508;13.454;2022-07-03T17:33:08;30.20;27.90
6538;DHT22;3302;52.508;13.454;2022-07-03T17:35:37;30.20;28.20
6538;DHT22;3302;52.508;13.454;2022-07-03T17:38:13;30.10;27.90
6538;DHT22;3302;52.508;13.454;2022-07-03T17:40:41;29.90;27.80